createdAt,value
2022-10-23T00:00:00.341Z,4.7
2022-10-23T00:05:00.307Z,1.8
2022-10-23T00:10:00.345Z,0.0
2022-10-23T00:15:00.320Z,0.0
2022-10-23T00:20:00.309Z,4.0
2022-10-23T00:25:00.319Z,4.0
2022-10-23T00:30:00.440Z,2.5
2022-10-23T00:35:00.283Z,5.8
2022-10-23T00:40:00.298Z,7.2
2022-10-23T00:45:00.312Z,4.0
2022-10-23T00:50:00.369Z,2.2
2022-10-23T00:55:00.324Z,4.0
2022-10-23T01:00:00.346Z,2.5
2022-10-23T01:05:00.297Z,2.9
2022-10-23T01:10:00.295Z,4.0
2022-10-23T01:15:00.302Z,2.5
2022-10-23T01:20:00.323Z,4.0
2022-10-23T01:25:00.327Z,1.4
2022-10-23T01:30:00.344Z,1.4
2022-10-23T01:35:00.335Z,7.2
2022-10-23T01:40:00.291Z,5.0
2022-10-23T01:45:00.322Z,5.4
2022-10-23T01:50:00.290Z,9.4
2022-10-23T01:55:00.366Z,5.4
2022-10-23T02:00:00.320Z,4.7
2022-10-23T02:05:00.305Z,4.7
2022-10-23T02:10:00.425Z,0.0
2022-10-23T02:15:00.292Z,1.4
2022-10-23T02:20:00.327Z,2.5
2022-10-23T02:25:00.282Z,0.0
2022-10-23T02:30:00.339Z,0.0
2022-10-23T02:35:00.296Z,6.1
2022-10-23T02:40:00.308Z,2.9
2022-10-23T02:45:00.335Z,0.0
2022-10-23T02:50:00.411Z,0.0
2022-10-23T02:55:00.340Z,0.0
2022-10-23T03:00:00.369Z,0.0
2022-10-23T03:05:00.309Z,2.2
2022-10-23T03:10:00.302Z,0.0
2022-10-23T03:15:00.314Z,0.0
2022-10-23T03:20:00.319Z,1.4
2022-10-23T03:25:00.284Z,2.2
2022-10-23T03:30:00.350Z,2.5
2022-10-23T03:35:00.297Z,0.0
2022-10-23T03:40:00.313Z,0.0
2022-10-23T03:45:00.294Z,0.0
2022-10-23T03:50:00.324Z,0.0
2022-10-23T03:55:00.290Z,0.0
2022-10-23T04:00:00.329Z,0.0
2022-10-23T04:05:00.317Z,0.0
2022-10-23T04:10:00.345Z,0.0
2022-10-23T04:15:00.393Z,0.0
2022-10-23T04:20:00.292Z,0.0
2022-10-23T04:25:00.349Z,0.0
2022-10-23T04:30:00.319Z,0.0
2022-10-23T04:35:00.348Z,0.0
2022-10-23T04:40:00.302Z,0.0
2022-10-23T04:45:00.305Z,0.0
2022-10-23T04:50:00.326Z,0.0
2022-10-23T04:55:00.313Z,0.0
2022-10-23T05:00:00.359Z,0.0
2022-10-23T05:05:00.311Z,0.0
2022-10-23T05:10:00.289Z,0.0
2022-10-23T05:15:00.315Z,0.0
2022-10-23T05:20:00.339Z,0.0
2022-10-23T05:25:00.309Z,0.0
2022-10-23T05:30:00.295Z,0.0
2022-10-23T05:35:00.318Z,0.0
2022-10-23T05:40:00.376Z,0.0
2022-10-23T05:45:00.315Z,0.0
2022-10-23T05:50:00.333Z,0.0
2022-10-23T05:55:00.339Z,0.0
2022-10-23T06:00:00.323Z,0.0
2022-10-23T06:05:00.294Z,0.0
2022-10-23T06:10:00.366Z,0.0
2022-10-23T06:15:00.303Z,0.0
2022-10-23T06:20:00.292Z,0.0
2022-10-23T06:25:00.285Z,0.0
2022-10-23T06:30:00.306Z,0.0
2022-10-23T06:35:00.524Z,0.0
2022-10-23T06:40:00.314Z,0.0
2022-10-23T06:45:07.529Z,0.0
2022-10-23T06:50:00.296Z,0.0
2022-10-23T06:55:00.369Z,0.0
2022-10-23T07:00:00.388Z,0.0
2022-10-23T07:05:00.294Z,0.0
2022-10-23T07:10:00.591Z,0.0
2022-10-23T07:15:00.352Z,0.0
2022-10-23T07:20:00.322Z,0.0
2022-10-23T07:25:00.302Z,0.0
2022-10-23T07:30:00.343Z,0.0
2022-10-23T07:35:00.554Z,0.0
2022-10-23T07:40:00.310Z,0.0
2022-10-23T07:45:00.332Z,0.0
2022-10-23T07:50:00.433Z,0.0
2022-10-23T07:55:00.303Z,0.0
2022-10-23T08:00:00.328Z,0.0
2022-10-23T08:05:00.375Z,4.0
2022-10-23T08:10:00.316Z,1.4
2022-10-23T08:15:00.367Z,4.0
2022-10-23T08:20:00.296Z,4.7
2022-10-23T08:25:00.303Z,1.4
2022-10-23T08:30:00.344Z,0.0
2022-10-23T08:35:00.277Z,0.0
2022-10-23T08:40:00.343Z,1.8
2022-10-23T08:45:00.324Z,2.2
2022-10-23T08:50:00.303Z,8.3
2022-10-23T08:55:00.298Z,8.6
2022-10-23T09:00:00.367Z,8.6
2022-10-23T09:05:00.313Z,8.6
2022-10-23T09:10:00.315Z,10.1
2022-10-23T09:15:00.303Z,2.2
2022-10-23T09:20:00.381Z,9.7
2022-10-23T09:25:00.282Z,10.8
2022-10-23T09:30:00.330Z,6.5
2022-10-23T09:35:00.310Z,9.0
2022-10-23T09:40:00.322Z,9.7
2022-10-23T09:45:00.324Z,4.0
2022-10-23T09:50:00.328Z,10.8
2022-10-23T09:55:00.304Z,7.6
2022-10-23T10:00:00.349Z,4.3
2022-10-23T10:05:00.332Z,6.5
2022-10-23T10:10:00.298Z,4.7
2022-10-23T10:15:00.323Z,7.2
2022-10-23T10:20:07.346Z,8.6
2022-10-23T10:25:00.310Z,5.0
2022-10-23T10:30:00.330Z,5.4
2022-10-23T10:35:00.317Z,4.0
2022-10-23T10:40:00.306Z,8.6
2022-10-23T10:45:00.341Z,12.2
2022-10-23T10:50:00.371Z,7.6
2022-10-23T10:55:00.302Z,9.0
2022-10-23T11:00:00.492Z,9.7
2022-10-23T11:05:00.315Z,9.4
2022-10-23T11:10:00.288Z,2.9
2022-10-23T11:15:00.301Z,4.0
2022-10-23T11:20:00.363Z,4.3
2022-10-23T11:25:00.271Z,14.4
2022-10-23T11:30:00.345Z,13.7
2022-10-23T11:35:00.322Z,2.2
2022-10-23T11:40:00.399Z,3.6
2022-10-23T11:45:00.319Z,11.2
2022-10-23T11:50:00.336Z,9.4
2022-10-23T11:55:00.308Z,3.6
2022-10-23T12:00:00.350Z,10.4
2022-10-23T12:05:00.295Z,11.5
2022-10-23T12:10:00.304Z,2.9
2022-10-23T12:15:00.313Z,14.4
2022-10-23T12:20:00.387Z,6.5
2022-10-23T12:25:00.279Z,7.2
2022-10-23T12:30:00.343Z,5.0
2022-10-23T12:35:00.317Z,3.6
2022-10-23T12:40:00.288Z,6.5
2022-10-23T12:45:00.351Z,15.8
2022-10-23T12:50:00.349Z,14.0
2022-10-23T12:55:00.264Z,0.0
2022-10-23T13:00:00.501Z,2.2
2022-10-23T13:05:00.333Z,12.2
2022-10-23T13:10:00.324Z,3.6
2022-10-23T13:15:00.297Z,4.7
2022-10-23T13:20:00.343Z,11.2
2022-10-23T13:25:00.325Z,5.8
2022-10-23T13:30:00.349Z,9.4
2022-10-23T13:35:21.655Z,1.8
2022-10-23T13:40:00.295Z,5.8
2022-10-23T13:45:00.307Z,13.0
2022-10-23T13:50:00.342Z,6.5
2022-10-23T13:55:00.287Z,5.8
2022-10-23T14:00:00.350Z,7.6
2022-10-23T14:05:00.314Z,11.2
2022-10-23T14:10:00.323Z,12.2
2022-10-23T14:15:00.363Z,3.6
2022-10-23T14:20:00.322Z,5.8
2022-10-23T14:25:00.299Z,6.8
2022-10-23T14:30:00.324Z,5.0
2022-10-23T14:35:00.291Z,4.7
2022-10-23T14:40:00.307Z,4.0
2022-10-23T14:45:00.295Z,8.6
2022-10-23T14:50:00.312Z,5.0
2022-10-23T14:55:00.296Z,11.2
2022-10-23T15:00:00.701Z,7.6
2022-10-23T15:05:00.328Z,6.1
2022-10-23T15:10:00.298Z,6.1
2022-10-23T15:15:00.324Z,6.1
2022-10-23T15:20:00.318Z,7.2
2022-10-23T15:25:00.289Z,7.9
2022-10-23T15:30:00.335Z,14.0
2022-10-23T15:35:00.299Z,4.0
2022-10-23T15:40:02.795Z,6.1
2022-10-23T15:45:00.373Z,4.0
2022-10-23T15:50:00.295Z,8.3
2022-10-23T15:55:00.309Z,9.4
2022-10-23T16:00:00.681Z,4.0
2022-10-23T16:05:00.329Z,4.3
2022-10-23T16:10:00.586Z,4.7
2022-10-23T16:15:00.334Z,2.2
2022-10-23T16:20:00.593Z,5.0
2022-10-23T16:25:00.270Z,6.8
2022-10-23T16:30:00.305Z,9.0
2022-10-23T16:35:00.294Z,4.7
2022-10-23T16:40:00.301Z,6.1
2022-10-23T16:45:00.332Z,5.0
2022-10-23T16:50:00.316Z,5.0
2022-10-23T16:55:00.289Z,6.5
2022-10-23T17:00:00.340Z,9.0
2022-10-23T17:05:00.301Z,4.3
2022-10-23T17:10:00.815Z,3.6
2022-10-23T17:15:00.386Z,5.0
2022-10-23T17:20:00.360Z,1.4
2022-10-23T17:25:00.332Z,2.5
2022-10-23T17:30:00.327Z,2.9
2022-10-23T17:35:00.274Z,5.0
2022-10-23T17:40:01.835Z,3.2
2022-10-23T17:45:00.314Z,3.2
2022-10-23T17:50:00.303Z,2.2
2022-10-23T17:55:00.361Z,10.1
2022-10-23T18:00:00.354Z,1.1
2022-10-23T18:05:00.308Z,0.0
2022-10-23T18:10:00.353Z,2.5
2022-10-23T18:15:00.302Z,0.0
2022-10-23T18:20:02.592Z,0.0
2022-10-23T18:25:00.292Z,2.2
2022-10-23T18:30:00.301Z,6.8
2022-10-23T18:35:00.293Z,6.5
2022-10-23T18:40:00.316Z,6.5
2022-10-23T18:45:00.289Z,6.1
2022-10-23T18:50:00.298Z,4.7
2022-10-23T18:55:00.312Z,6.5
2022-10-23T19:00:00.343Z,6.1
2022-10-23T19:05:00.267Z,4.7
2022-10-23T19:10:00.347Z,9.4
2022-10-23T19:15:00.314Z,4.3
2022-10-23T19:20:00.305Z,5.0
2022-10-23T19:25:00.303Z,3.6
2022-10-23T19:30:00.351Z,7.6
2022-10-23T19:35:00.357Z,9.7
2022-10-23T19:40:00.356Z,4.0
2022-10-23T19:45:00.324Z,7.6
2022-10-23T19:50:00.294Z,10.8
2022-10-23T19:55:00.274Z,7.6
2022-10-23T20:00:00.360Z,8.6
2022-10-23T20:05:00.281Z,6.5
2022-10-23T20:10:00.354Z,8.6
2022-10-23T20:15:00.332Z,15.1
2022-10-23T20:20:00.332Z,15.5
2022-10-23T20:25:00.307Z,14.4
2022-10-23T20:30:00.304Z,15.1
2022-10-23T20:35:00.272Z,8.3
2022-10-23T20:40:00.327Z,9.4
2022-10-23T20:45:00.375Z,9.4
2022-10-23T20:50:00.345Z,4.7
2022-10-23T20:55:00.287Z,10.8
2022-10-23T21:00:00.343Z,6.5
2022-10-23T21:05:00.293Z,8.3
2022-10-23T21:10:00.302Z,7.6
2022-10-23T21:15:00.320Z,8.6
2022-10-23T21:20:00.317Z,5.0
2022-10-23T21:25:00.327Z,4.7
2022-10-23T21:30:00.356Z,10.1
2022-10-23T21:35:00.265Z,12.6
2022-10-23T21:40:00.341Z,9.7
2022-10-23T21:45:00.323Z,0.0
2022-10-23T21:50:00.297Z,5.0
2022-10-23T21:55:00.339Z,4.0
2022-10-23T22:00:00.395Z,4.3
2022-10-23T22:05:00.282Z,5.4
2022-10-23T22:10:00.312Z,6.5
2022-10-23T22:15:00.321Z,7.2
2022-10-23T22:20:00.318Z,6.8
2022-10-23T22:25:00.351Z,12.2
2022-10-23T22:30:00.383Z,6.1
2022-10-23T22:35:00.278Z,10.4
2022-10-23T22:40:00.311Z,12.2
2022-10-23T22:45:00.310Z,21.6
2022-10-23T22:50:00.307Z,7.2
2022-10-23T22:55:00.283Z,11.9
2022-10-23T23:00:00.313Z,19.8
2022-10-23T23:05:00.267Z,9.0
2022-10-23T23:10:00.320Z,13.0
2022-10-23T23:15:00.291Z,11.9
2022-10-23T23:20:00.339Z,7.2
2022-10-23T23:25:00.286Z,4.7
2022-10-23T23:30:00.342Z,9.7
2022-10-23T23:35:00.294Z,1.8
2022-10-23T23:40:00.318Z,4.0
2022-10-23T23:45:15.284Z,2.2
2022-10-23T23:50:00.341Z,3.6
2022-10-23T23:55:00.308Z,0.0
